Time;durP1;ratioP1;P1;durP2;ratioP2;P2;SDS_P1;SDS_P2;PMS_P1;PMS_P2;Temp;Humidity;BMP_temperature;BMP_pressure;BME280_temperature;BME280_humidity;BME280_pressure;Samples;Min_cycle;Max_cycle;Signal;HPM_P1;HPM_P2
2023/01/05 00:00:00;;;;;;;23.13;4.93;;;9.50;99.90;;;;;;5030787;28;20462;-87
2023/01/05 00:02:27;;;;;;;21.83;4.32;;;9.50;99.90;;;;;;5030502;28;20118;-87
2023/01/05 00:04:53;;;;;;;23.67;4.45;;;9.50;99.90;;;;;;5059136;28;20073;-86
2023/01/05 00:07:19;;;;;;;21.13;3.92;;;9.50;99.90;;;;;;5045691;28;20076;-88
2023/01/05 00:09:45;;;;;;;19.05;4.57;;;9.50;99.90;;;;;;5028656;28;20060;-86
2023/01/05 00:22:29;;;;;;;16.92;3.67;;;9.50;99.90;;;;;;5046145;28;20048;-88
2023/01/05 00:23:19;;;;;;;19.83;3.85;;;9.50;99.90;;;;;;5048036;28;20053;-88
2023/01/05 00:25:45;;;;;;;21.58;3.85;;;9.50;99.90;;;;;;5046819;28;20625;-88
2023/01/05 00:28:10;;;;;;;23.25;4.15;;;9.60;99.90;;;;;;5048606;28;20036;-87
2023/01/05 00:30:41;;;;;;;16.02;3.60;;;9.40;99.90;;;;;;5044708;28;20111;-86
2023/01/05 00:33:08;;;;;;;19.55;3.67;;;9.40;99.90;;;;;;5047611;28;20055;-87
2023/01/05 00:35:34;;;;;;;18.00;4.13;;;9.40;99.90;;;;;;5030017;28;20403;-87
2023/01/05 00:38:00;;;;;;;24.00;4.28;;;9.40;99.90;;;;;;5031686;28;20037;-87
2023/01/05 00:40:27;;;;;;;17.50;4.00;;;9.40;99.90;;;;;;5015104;28;20568;-88
2023/01/05 00:42:52;;;;;;;21.35;3.97;;;9.40;99.90;;;;;;5043538;28;20064;-88
2023/01/05 00:45:19;;;;;;;16.77;3.85;;;9.40;99.90;;;;;;5041982;28;20486;-87
2023/01/05 00:47:44;;;;;;;17.05;3.95;;;9.40;99.90;;;;;;5044005;28;20041;-87
2023/01/05 00:50:14;;;;;;;19.08;4.57;;;9.40;99.90;;;;;;5044493;28;20051;-88
2023/01/05 00:52:40;;;;;;;21.02;3.95;;;9.40;99.90;;;;;;5027637;28;20766;-85
2023/01/05 00:55:06;;;;;;;18.40;3.70;;;9.40;99.90;;;;;;5064880;28;20040;-84
2023/01/05 00:57:31;;;;;;;20.90;4.40;;;9.40;99.90;;;;;;5038876;28;20285;-85
2023/01/05 00:59:57;;;;;;;21.10;4.55;;;9.40;99.90;;;;;;5064986;28;20119;-86
2023/01/05 01:02:23;;;;;;;20.48;4.55;;;9.40;99.90;;;;;;5063958;28;20032;-85
2023/01/05 01:04:49;;;;;;;21.20;4.82;;;9.40;99.90;;;;;;5048215;28;20045;-86
2023/01/05 01:07:14;;;;;;;22.27;4.28;;;9.40;99.90;;;;;;5062104;28;20093;-86
2023/01/05 01:09:40;;;;;;;22.30;5.03;;;9.40;99.90;;;;;;5065594;28;20036;-85
2023/01/05 01:12:06;;;;;;;25.02;5.45;;;9.40;99.90;;;;;;5031566;28;20048;-86
2023/01/05 01:14:32;;;;;;;26.00;4.82;;;9.40;99.90;;;;;;5064668;28;20037;-87
2023/01/05 01:16:58;;;;;;;21.40;4.38;;;9.40;99.90;;;;;;5032807;28;20044;-87
2023/01/05 01:19:26;;;;;;;20.30;5.00;;;9.40;99.90;;;;;;5043835;28;20055;-88
2023/01/05 01:21:52;;;;;;;25.77;4.47;;;9.40;99.90;;;;;;5048742;28;20055;-86
2023/01/05 01:24:21;;;;;;;21.40;4.30;;;9.40;99.90;;;;;;5047008;28;20060;-86
2023/01/05 01:26:47;;;;;;;24.20;4.20;;;9.40;99.90;;;;;;5045903;28;20899;-87
2023/01/05 01:29:16;;;;;;;24.88;4.13;;;9.00;99.90;;;;;;5062219;28;20088;-86
2023/01/05 01:31:42;;;;;;;24.10;4.38;;;9.40;99.90;;;;;;5042865;28;20571;-86
2023/01/05 01:34:08;;;;;;;21.05;4.32;;;9.40;99.90;;;;;;5042229;28;20037;-87
2023/01/05 01:36:33;;;;;;;26.98;5.22;;;9.40;99.90;;;;;;5029290;28;20421;-89
2023/01/05 01:38:59;;;;;;;22.05;4.53;;;9.40;99.90;;;;;;5028869;28;20524;-87
2023/01/05 01:41:25;;;;;;;20.75;4.22;;;9.50;99.90;;;;;;5059916;28;20049;-86
2023/01/05 01:43:54;;;;;;;19.73;3.60;;;9.50;99.90;;;;;;5041966;28;20091;-88
2023/01/05 01:46:21;;;;;;;23.05;3.85;;;9.50;99.90;;;;;;5026983;28;20048;-88
2023/01/05 01:48:50;;;;;;;20.95;3.80;;;9.40;99.90;;;;;;5030420;28;20045;-88
2023/01/05 01:51:21;;;;;;;23.60;4.30;;;9.50;99.90;;;;;;5043638;28;20044;-88
2023/01/05 01:53:52;;;;;;;18.63;4.32;;;9.50;99.90;;;;;;5027919;28;20122;-88
2023/01/05 01:56:21;;;;;;;21.48;4.40;;;9.50;99.90;;;;;;5041899;28;20134;-89
2023/01/05 01:58:47;;;;;;;19.00;3.80;;;9.50;99.90;;;;;;5044100;28;20064;-88
2023/01/05 02:01:13;;;;;;;19.52;3.70;;;9.50;99.90;;;;;;5029518;28;20052;-88
2023/01/05 02:03:40;;;;;;;24.35;4.72;;;9.60;99.90;;;;;;5045749;28;20028;-85
2023/01/05 02:06:06;;;;;;;18.45;4.10;;;9.60;99.90;;;;;;5045360;28;20047;-86
2023/01/05 02:08:32;;;;;;;21.48;4.75;;;9.60;99.90;;;;;;5047428;28;20064;-88
2023/01/05 02:11:29;;;;;;;17.05;3.90;;;9.60;99.90;;;;;;5045367;28;20041;-88
2023/01/05 02:14:03;;;;;;;21.90;4.47;;;9.60;99.90;;;;;;5042916;28;20040;-87
2023/01/05 02:16:57;;;;;;;14.50;3.20;;;9.60;99.90;;;;;;5044572;28;20037;-88
2023/01/05 02:19:26;;;;;;;19.30;3.78;;;9.70;99.90;;;;;;5058966;28;20525;-87
2023/01/05 02:22:06;;;;;;;17.27;4.25;;;9.70;99.90;;;;;;5041211;28;20281;-89
2023/01/05 02:24:43;;;;;;;18.10;3.78;;;9.70;99.90;;;;;;5041692;28;20041;-87
2023/01/05 02:27:30;;;;;;;17.30;3.30;;;9.70;99.90;;;;;;5041128;28;20512;-88
2023/01/05 02:30:19;;;;;;;15.95;3.72;;;9.60;99.90;;;;;;5028412;28;20037;-87
2023/01/05 02:33:14;;;;;;;21.17;4.45;;;9.70;99.90;;;;;;5024719;28;20052;-87
2023/01/05 02:35:46;;;;;;;22.90;3.58;;;9.70;99.90;;;;;;5037923;28;20095;-88
2023/01/05 02:38:37;;;;;;;23.08;3.97;;;9.70;99.90;;;;;;5036156;28;20037;-89
2023/01/05 02:41:29;;;;;;;20.38;4.20;;;9.70;99.90;;;;;;5044726;28;20081;-89
2023/01/05 02:43:56;;;;;;;18.03;3.57;;;9.70;99.90;;;;;;5042288;28;20044;-88
2023/01/05 02:46:22;;;;;;;20.05;3.97;;;9.60;99.90;;;;;;5044053;28;20327;-89
2023/01/05 02:48:52;;;;;;;18.90;4.10;;;9.60;99.90;;;;;;5041006;28;20122;-87
2023/01/05 02:51:28;;;;;;;25.48;4.50;;;9.60;99.90;;;;;;5045060;28;20040;-88
2023/01/05 02:54:20;;;;;;;22.75;4.30;;;9.60;99.90;;;;;;5041103;28;20112;-89
2023/01/05 02:57:10;;;;;;;16.55;3.78;;;9.60;99.90;;;;;;5044027;28;20072;-88
2023/01/05 02:59:41;;;;;;;21.63;4.15;;;9.60;99.90;;;;;;5042871;28;20037;-88
2023/01/05 03:02:15;;;;;;;21.13;3.90;;;9.60;99.90;;;;;;5041458;28;20053;-88
2023/01/05 03:04:55;;;;;;;18.90;4.10;;;9.60;99.90;;;;;;5040794;28;20133;-87
2023/01/05 03:07:27;;;;;;;16.85;4.03;;;9.60;99.90;;;;;;5028407;28;20065;-88
2023/01/05 03:09:53;;;;;;;26.10;4.32;;;9.60;99.90;;;;;;5041260;28;21020;-87
2023/01/05 03:15:12;;;;;;;21.60;4.13;;;9.60;99.90;;;;;;5039220;28;20462;-87
2023/01/05 03:17:45;;;;;;;17.65;3.90;;;9.60;99.90;;;;;;5041941;28;20110;-88
2023/01/05 03:20:18;;;;;;;19.48;4.25;;;9.60;99.90;;;;;;5045217;28;20049;-88
2023/01/05 03:36:58;;;;;;;20.92;4.30;;;9.60;99.90;;;;;;5042198;28;20041;-87
2023/01/05 03:39:29;;;;;;;22.73;4.68;;;9.60;99.90;;;;;;5045088;28;20041;-88
2023/01/05 03:41:55;;;;;;;14.75;3.53;;;9.60;99.90;;;;;;5043049;28;20094;-87
2023/01/05 03:44:21;;;;;;;22.80;4.57;;;9.60;99.90;;;;;;5044763;28;20056;-88
2023/01/05 03:46:47;;;;;;;24.65;3.95;;;9.60;99.90;;;;;;5023359;28;20445;-89
2023/01/05 03:49:13;;;;;;;23.83;4.68;;;9.50;99.90;;;;;;5026855;28;20049;-88
2023/01/05 03:51:39;;;;;;;22.88;4.72;;;9.50;99.90;;;;;;5046080;28;20160;-89
2023/01/05 03:54:04;;;;;;;24.08;4.38;;;9.60;99.90;;;;;;5031236;28;20056;-87
2023/01/05 03:56:30;;;;;;;16.90;3.50;;;9.60;99.90;;;;;;5044764;28;20052;-87
2023/01/05 03:58:56;;;;;;;21.67;4.50;;;9.60;99.90;;;;;;5034489;28;20049;-87
2023/01/05 04:01:22;;;;;;;19.30;4.30;;;9.60;99.90;;;;;;5014612;28;20044;-88
2023/01/05 04:03:47;;;;;;;17.13;3.85;;;9.60;99.90;;;;;;5029699;28;20076;-87
2023/01/05 04:06:13;;;;;;;22.67;4.97;;;9.60;99.90;;;;;;5045781;28;20064;-86
2023/01/05 04:08:39;;;;;;;19.67;4.20;;;9.60;99.90;;;;;;5047651;28;20267;-90
2023/01/05 04:11:17;;;;;;;22.73;4.18;;;9.60;99.90;;;;;;5048004;28;20041;-88
2023/01/05 04:13:42;;;;;;;21.70;4.57;;;9.70;99.90;;;;;;5046855;28;20052;-89
2023/01/05 04:16:08;;;;;;;23.83;4.22;;;9.60;99.90;;;;;;5051713;28;20116;-88
2023/01/05 04:18:34;;;;;;;21.00;3.65;;;9.60;99.90;;;;;;5047885;28;20512;-88
2023/01/05 04:21:00;;;;;;;20.83;4.07;;;9.60;99.90;;;;;;5044730;28;20509;-87
2023/01/05 04:23:26;;;;;;;20.95;4.20;;;9.60;99.90;;;;;;5025487;28;20080;-87
2023/01/05 04:25:51;;;;;;;25.48;4.65;;;9.60;99.90;;;;;;5042726;28;20053;-87
2023/01/05 04:28:17;;;;;;;17.40;3.65;;;9.60;99.90;;;;;;5045738;28;20044;-88
2023/01/05 04:30:44;;;;;;;19.60;3.95;;;9.70;99.90;;;;;;5031600;28;20044;-88
2023/01/05 04:33:10;;;;;;;19.20;3.58;;;9.70;99.90;;;;;;5046832;28;20525;-87
2023/01/05 04:35:35;;;;;;;21.73;4.43;;;9.70;99.90;;;;;;5029824;28;20040;-88
2023/01/05 04:38:01;;;;;;;20.38;3.83;;;10.00;99.90;;;;;;5045437;28;20056;-86
2023/01/05 04:40:27;;;;;;;19.58;4.22;;;9.70;99.90;;;;;;5029694;28;20041;-87
2023/01/05 04:42:53;;;;;;;21.55;4.28;;;9.70;99.90;;;;;;5043491;28;20053;-88
2023/01/05 04:45:18;;;;;;;16.48;4.30;;;9.80;99.90;;;;;;5009663;28;20047;-87
2023/01/05 04:47:44;;;;;;;20.88;4.15;;;9.80;99.90;;;;;;5046050;28;20064;-88
2023/01/05 04:50:10;;;;;;;20.00;4.25;;;9.80;99.90;;;;;;5041960;28;20093;-88
2023/01/05 04:52:36;;;;;;;20.02;4.57;;;9.80;99.90;;;;;;5029987;28;20532;-88
2023/01/05 04:55:02;;;;;;;20.58;3.88;;;9.80;99.90;;;;;;5042079;28;20044;-89
2023/01/05 04:57:28;;;;;;;20.27;4.15;;;9.80;99.90;;;;;;5042202;28;20668;-88
2023/01/05 04:59:54;;;;;;;20.00;4.22;;;9.80;99.90;;;;;;5046239;28;20233;-89
2023/01/05 05:02:19;;;;;;;17.85;3.92;;;9.80;99.90;;;;;;5046448;28;20058;-88
2023/01/05 05:04:46;;;;;;;19.20;4.10;;;9.80;99.90;;;;;;5043224;28;20043;-88
2023/01/05 05:07:12;;;;;;;20.35;4.00;;;9.80;99.90;;;;;;5012694;28;20044;-89
2023/01/05 05:09:38;;;;;;;20.02;3.80;;;9.80;99.90;;;;;;5045571;28;20669;-87
2023/01/05 05:12:04;;;;;;;21.95;4.60;;;9.80;99.90;;;;;;5046009;28;20048;-87
2023/01/05 05:14:29;;;;;;;20.77;4.13;;;9.70;99.90;;;;;;5041959;28;20045;-87
2023/01/05 05:16:55;;;;;;;21.85;4.07;;;9.80;99.90;;;;;;5040279;28;20112;-88
2023/01/05 05:19:21;;;;;;;18.73;3.25;;;9.70;99.90;;;;;;5029452;28;20124;-88
2023/01/05 05:21:46;;;;;;;20.95;3.88;;;9.70;99.90;;;;;;5059306;28;20064;-89
2023/01/05 05:24:12;;;;;;;18.40;4.40;;;9.70;99.90;;;;;;5045038;28;20517;-88
2023/01/05 05:26:38;;;;;;;14.68;3.28;;;9.80;99.90;;;;;;5041743;28;20049;-87
2023/01/05 05:29:04;;;;;;;19.63;4.45;;;9.80;99.90;;;;;;5041579;28;20044;-88
2023/01/05 05:31:29;;;;;;;19.50;4.32;;;9.80;99.90;;;;;;5025513;28;20142;-87
2023/01/05 05:33:55;;;;;;;18.92;3.80;;;9.80;99.90;;;;;;5026807;28;20121;-87
2023/01/05 05:36:21;;;;;;;18.35;4.05;;;9.80;99.90;;;;;;5045303;28;20033;-88
2023/01/05 05:38:47;;;;;;;19.50;4.03;;;9.80;99.90;;;;;;5026372;28;20060;-87
2023/01/05 05:41:12;;;;;;;20.00;3.92;;;9.70;99.90;;;;;;5043330;28;20510;-88
2023/01/05 05:43:38;;;;;;;15.60;3.70;;;9.80;99.90;;;;;;5044660;28;20068;-88
2023/01/05 05:46:04;;;;;;;16.77;3.30;;;9.80;99.90;;;;;;5008100;28;20064;-87
2023/01/05 05:48:30;;;;;;;20.23;4.00;;;9.80;99.90;;;;;;5017206;28;20045;-88
2023/01/05 05:50:55;;;;;;;22.67;4.13;;;9.80;99.90;;;;;;5046072;28;20033;-87
2023/01/05 05:53:21;;;;;;;19.95;3.72;;;9.80;99.90;;;;;;5030954;28;20033;-88
2023/01/05 05:55:48;;;;;;;16.98;3.72;;;9.80;99.90;;;;;;5041321;28;20486;-88
2023/01/05 05:58:15;;;;;;;19.88;4.28;;;9.80;99.90;;;;;;5026421;28;20045;-88
2023/01/05 06:00:40;;;;;;;20.38;4.57;;;9.70;99.90;;;;;;5041534;28;20127;-90
2023/01/05 06:03:06;;;;;;;22.83;4.47;;;9.80;99.90;;;;;;5037889;28;20127;-88
2023/01/05 06:05:32;;;;;;;21.77;4.43;;;9.70;99.90;;;;;;5025923;28;20037;-88
2023/01/05 06:07:57;;;;;;;20.38;4.63;;;9.70;99.90;;;;;;5044017;28;20048;-89
2023/01/05 06:10:23;;;;;;;18.17;3.83;;;9.70;99.90;;;;;;5026388;28;20206;-88
2023/01/05 06:12:49;;;;;;;17.70;3.90;;;9.70;99.90;;;;;;5027705;28;20051;-88
2023/01/05 06:15:15;;;;;;;24.00;4.63;;;9.70;99.90;;;;;;5043572;28;20048;-87
2023/01/05 06:17:40;;;;;;;21.58;4.78;;;9.70;99.90;;;;;;5030354;28;20061;-88
2023/01/05 06:20:08;;;;;;;20.45;4.18;;;9.70;99.90;;;;;;5044950;28;20044;-88
2023/01/05 06:22:33;;;;;;;17.48;3.90;;;9.70;99.90;;;;;;5040787;28;20053;-87
2023/01/05 06:24:59;;;;;;;22.15;3.92;;;9.70;99.90;;;;;;5040770;28;20067;-88
2023/01/05 06:27:25;;;;;;;16.42;4.07;;;9.70;99.90;;;;;;5028630;28;20391;-88
2023/01/05 06:29:51;;;;;;;18.50;4.43;;;9.70;99.90;;;;;;5042354;28;20071;-87
2023/01/05 06:32:16;;;;;;;21.70;4.10;;;9.70;99.90;;;;;;5041150;28;20120;-87
2023/01/05 06:34:42;;;;;;;19.00;4.55;;;9.70;99.90;;;;;;5044216;28;20067;-87
2023/01/05 06:37:08;;;;;;;15.60;3.45;;;9.60;99.90;;;;;;5039928;28;20446;-88
2023/01/05 06:39:33;;;;;;;16.23;3.22;;;9.60;99.90;;;;;;5041921;28;20048;-87
2023/01/05 06:41:59;;;;;;;17.58;4.32;;;9.60;99.90;;;;;;5041629;28;20134;-88
2023/01/05 06:44:25;;;;;;;21.63;3.78;;;9.50;99.90;;;;;;5025778;28;20123;-88
2023/01/05 06:46:50;;;;;;;19.55;4.15;;;9.50;99.90;;;;;;5043416;28;20083;-87
2023/01/05 06:49:16;;;;;;;17.20;3.30;;;9.50;99.90;;;;;;5041618;28;20410;-87
2023/01/05 06:51:42;;;;;;;22.38;4.18;;;9.50;99.90;;;;;;5042990;28;20060;-88
2023/01/05 06:54:07;;;;;;;21.50;4.60;;;9.50;99.90;;;;;;5027624;28;20510;-88
2023/01/05 06:56:33;;;;;;;16.88;3.80;;;9.50;99.90;;;;;;5026213;28;20522;-88
2023/01/05 06:58:59;;;;;;;17.88;4.07;;;9.50;99.90;;;;;;5028260;28;20049;-88
2023/01/05 07:01:24;;;;;;;25.17;4.32;;;9.40;99.90;;;;;;5042459;28;20044;-87
2023/01/05 07:03:50;;;;;;;25.45;4.28;;;9.40;99.90;;;;;;5044246;28;20522;-87
2023/01/05 07:06:16;;;;;;;25.40;4.95;;;9.40;99.90;;;;;;5041236;28;20052;-88
2023/01/05 07:08:42;;;;;;;22.92;4.20;;;9.40;99.90;;;;;;5043755;28;20029;-88
2023/01/05 07:11:08;;;;;;;20.95;4.40;;;9.40;99.90;;;;;;5041193;28;20040;-88
2023/01/05 07:13:33;;;;;;;22.58;4.45;;;9.40;99.90;;;;;;5025378;28;20401;-87
2023/01/05 07:15:59;;;;;;;22.38;3.70;;;9.40;99.90;;;;;;5039736;28;20104;-88
2023/01/05 07:18:27;;;;;;;23.67;4.85;;;9.40;99.90;;;;;;5042848;28;20037;-87
2023/01/05 07:20:53;;;;;;;26.02;5.38;;;9.40;99.90;;;;;;5026673;28;20060;-87
2023/01/05 07:23:21;;;;;;;19.73;4.28;;;9.40;99.90;;;;;;5047502;28;20079;-88
2023/01/05 07:25:46;;;;;;;19.35;4.30;;;9.40;99.90;;;;;;5046444;28;20129;-89
2023/01/05 07:28:12;;;;;;;25.42;5.35;;;9.40;99.90;;;;;;5052229;28;20258;-87
2023/01/05 07:30:38;;;;;;;25.45;4.85;;;9.40;99.90;;;;;;5034642;28;20403;-88
2023/01/05 07:33:04;;;;;;;22.20;4.22;;;9.50;99.90;;;;;;5049070;28;20353;-88
2023/01/05 07:35:29;;;;;;;23.88;4.30;;;9.50;99.90;;;;;;5043815;28;20052;-88
2023/01/05 07:37:56;;;;;;;27.90;4.75;;;9.40;99.90;;;;;;5035007;28;20193;-88
2023/01/05 07:40:22;;;;;;;24.70;4.22;;;;;;;;;;5033769;28;20441;-88
2023/01/05 07:42:52;;;;;;;21.35;4.43;;;9.40;99.90;;;;;;5032111;28;20516;-88
2023/01/05 07:45:18;;;;;;;21.08;4.15;;;9.40;99.90;;;;;;5029187;28;20044;-87
2023/01/05 07:47:44;;;;;;;21.42;4.05;;;9.60;99.90;;;;;;5049525;28;20045;-89
2023/01/05 07:50:10;;;;;;;20.70;4.25;;;9.40;99.90;;;;;;5047857;28;20037;-88
2023/01/05 07:52:35;;;;;;;20.52;3.92;;;9.40;99.90;;;;;;5046398;28;20053;-87
2023/01/05 07:55:01;;;;;;;23.23;4.45;;;9.40;99.90;;;;;;5030970;28;20112;-86
2023/01/05 07:57:27;;;;;;;23.67;4.63;;;9.50;99.90;;;;;;5046511;28;20046;-88
2023/01/05 07:59:52;;;;;;;21.75;4.50;;;9.40;99.90;;;;;;5047247;28;20153;-87
2023/01/05 08:02:19;;;;;;;19.67;4.40;;;9.50;99.90;;;;;;5048277;28;20041;-87
2023/01/05 08:04:45;;;;;;;20.77;3.90;;;9.50;99.90;;;;;;5045018;28;20036;-88
2023/01/05 08:07:11;;;;;;;15.35;3.45;;;9.50;99.90;;;;;;5025609;28;20037;-88
2023/01/05 08:12:22;;;;;;;18.60;3.50;;;9.40;99.90;;;;;;5047579;28;20045;-87
2023/01/05 08:14:47;;;;;;;17.52;3.70;;;9.40;99.90;;;;;;5026224;28;20068;-87
2023/01/05 08:17:13;;;;;;;20.15;3.55;;;9.40;99.90;;;;;;5047550;28;20133;-88
2023/01/05 08:19:39;;;;;;;19.23;3.17;;;9.50;99.90;;;;;;5047088;28;20512;-88
2023/01/05 08:22:05;;;;;;;17.55;3.80;;;9.40;99.90;;;;;;5049382;28;20042;-88
2023/01/05 08:24:30;;;;;;;19.08;4.38;;;8.30;99.90;;;;;;5044251;28;20049;-87
2023/01/05 08:26:56;;;;;;;20.35;4.40;;;9.50;99.90;;;;;;5026652;28;20053;-88
2023/01/05 08:29:22;;;;;;;21.75;3.25;;;9.50;99.90;;;;;;5044054;28;20059;-89
2023/01/05 08:31:48;;;;;;;13.98;3.50;;;9.50;99.90;;;;;;5048206;28;20086;-88
2023/01/05 08:34:14;;;;;;;20.27;3.90;;;9.40;99.90;;;;;;5067964;28;20132;-89
2023/01/05 08:36:39;;;;;;;20.10;4.05;;;9.40;99.90;;;;;;5052552;28;20030;-87
2023/01/05 08:39:05;;;;;;;21.63;3.90;;;9.60;99.90;;;;;;5070626;28;20033;-86
2023/01/05 08:41:34;;;;;;;18.20;3.42;;;9.50;99.90;;;;;;5071174;28;20105;-89
2023/01/05 08:44:05;;;;;;;20.45;3.55;;;9.50;99.90;;;;;;5071995;28;20032;-88
2023/01/05 08:46:33;;;;;;;18.45;3.72;;;9.50;99.90;;;;;;5072461;28;20045;-88
2023/01/05 08:49:02;;;;;;;18.90;4.10;;;9.50;99.90;;;;;;5056363;28;20029;-87
2023/01/05 08:51:29;;;;;;;19.42;4.05;;;9.50;99.90;;;;;;5063790;28;20029;-87
2023/01/05 08:53:55;;;;;;;13.68;3.28;;;9.50;99.90;;;;;;5071045;28;20037;-89
2023/01/05 08:56:23;;;;;;;19.17;3.65;;;9.50;99.90;;;;;;5053864;28;20135;-88
2023/01/05 08:58:50;;;;;;;27.38;5.03;;;9.40;99.90;;;;;;5051600;28;20041;-88
2023/01/05 09:01:17;;;;;;;18.70;4.38;;;9.40;99.90;;;;;;5051792;28;20068;-88
2023/01/05 09:03:43;;;;;;;21.38;4.03;;;9.40;99.90;;;;;;5037404;28;20068;-86
2023/01/05 09:06:10;;;;;;;20.23;4.80;;;9.40;99.90;;;;;;5033960;28;20512;-89
2023/01/05 09:08:40;;;;;;;17.55;4.03;;;9.30;99.90;;;;;;5045812;28;20040;-87
2023/01/05 09:11:17;;;;;;;26.45;4.30;;;9.40;99.90;;;;;;5050202;28;20195;-87
2023/01/05 09:13:48;;;;;;;25.25;4.53;;;9.30;99.90;;;;;;5030068;28;20493;-87
2023/01/05 09:16:17;;;;;;;19.75;3.85;;;9.30;99.90;;;;;;5032906;28;20574;-87
2023/01/05 09:18:44;;;;;;;15.95;3.60;;;9.30;99.90;;;;;;5028889;28;20037;-86
2023/01/05 09:21:11;;;;;;;21.27;4.38;;;9.30;99.90;;;;;;5046530;28;20505;-87
2023/01/05 09:23:37;;;;;;;20.38;4.03;;;9.30;99.90;;;;;;5046480;28;20098;-85
2023/01/05 09:26:04;;;;;;;22.73;4.40;;;9.30;99.90;;;;;;5046167;28;20076;-86
2023/01/05 09:28:30;;;;;;;20.70;4.13;;;9.30;99.90;;;;;;5044028;28;20041;-87
2023/01/05 09:30:56;;;;;;;25.95;4.60;;;9.30;99.90;;;;;;5037637;28;20043;-88
2023/01/05 09:33:21;;;;;;;24.77;4.10;;;9.30;99.90;;;;;;5027643;28;20059;-88
2023/01/05 09:35:55;;;;;;;23.00;4.30;;;9.30;99.90;;;;;;5022932;28;20045;-88
2023/01/05 09:38:20;;;;;;;;;;;9.20;99.90;;;;;;5042494;28;20535;-87
2023/01/05 09:40:48;;;;;;;14.40;3.42;;;9.20;99.90;;;;;;5028773;28;19916;-88
2023/01/05 09:43:33;;;;;;;17.77;3.30;;;9.50;99.90;;;;;;5043950;28;20037;-88
2023/01/05 09:46:00;;;;;;;19.80;3.20;;;9.20;99.90;;;;;;5059466;28;20048;-89
2023/01/05 09:48:29;;;;;;;12.15;3.08;;;9.30;99.90;;;;;;5044427;28;20037;-88
2023/01/05 09:50:55;;;;;;;17.23;3.00;;;9.30;99.90;;;;;;5059503;28;20044;-88
2023/01/05 09:53:28;;;;;;;16.65;3.13;;;9.30;99.90;;;;;;5046983;28;20402;-88
2023/01/05 09:55:54;;;;;;;13.73;2.78;;;9.30;99.90;;;;;;5043390;28;20219;-87
2023/01/05 09:58:24;;;;;;;17.23;2.85;;;9.30;99.90;;;;;;5046188;28;20040;-87
2023/01/05 10:01:02;;;;;;;18.85;3.47;;;9.30;99.90;;;;;;5045438;28;20041;-87
2023/01/05 10:03:29;;;;;;;16.83;2.63;;;9.30;99.90;;;;;;5045484;28;20047;-87
2023/01/05 10:05:57;;;;;;;15.57;2.63;;;9.30;99.90;;;;;;5029275;28;20045;-87
2023/01/05 10:08:35;;;;;;;13.65;2.65;;;9.30;99.90;;;;;;5042662;28;20048;-87
2023/01/05 10:14:18;;;;;;;19.90;3.08;;;9.40;99.90;;;;;;5046955;28;20056;-88
2023/01/05 10:16:45;;;;;;;12.73;3.38;;;9.40;99.90;;;;;;5037790;28;20120;-89
2023/01/05 10:19:17;;;;;;;14.93;2.75;;;9.40;99.90;;;;;;5029951;28;20119;-88
2023/01/05 10:21:57;;;;;;;12.30;2.77;;;9.40;99.90;;;;;;5028827;28;20021;-85
2023/01/05 10:24:49;;;;;;;17.75;3.28;;;9.40;99.90;;;;;;5022575;28;20304;-88
2023/01/05 10:27:26;;;;;;;11.73;2.70;;;9.20;99.90;;;;;;5041872;28;20052;-88
2023/01/05 10:30:25;;;;;;;12.57;2.40;;;9.50;99.90;;;;;;5044232;28;20041;-89
2023/01/05 10:33:08;;;;;;;12.35;2.40;;;9.50;99.90;;;;;;5042556;28;20048;-88
2023/01/05 10:35:58;;;;;;;12.60;2.28;;;9.50;99.90;;;;;;5045903;28;20106;-88
2023/01/05 10:38:53;;;;;;;14.18;2.60;;;9.50;99.90;;;;;;5042655;28;20437;-89
2023/01/05 10:41:56;;;;;;;16.70;3.05;;;9.50;99.90;;;;;;5027798;28;20573;-88
2023/01/05 10:44:40;;;;;;;16.08;3.47;;;9.60;99.90;;;;;;5039586;28;20037;-88
2023/01/05 10:47:11;;;;;;;11.80;2.95;;;9.50;99.90;;;;;;5028372;28;20102;-86
2023/01/05 10:49:39;;;;;;;17.58;2.97;;;9.50;99.90;;;;;;5043695;28;20123;-87
2023/01/05 10:52:10;;;;;;;17.88;3.50;;;9.50;99.90;;;;;;5027340;28;20486;-87
2023/01/05 10:54:39;;;;;;;15.68;3.15;;;9.50;99.90;;;;;;5044999;28;20048;-88
2023/01/05 10:57:30;;;;;;;15.38;3.78;;;9.50;99.90;;;;;;5028240;28;20045;-88
2023/01/05 11:00:20;;;;;;;20.85;3.63;;;9.60;99.90;;;;;;5040263;28;20381;-88
2023/01/05 11:02:59;;;;;;;18.08;3.10;;;9.60;99.90;;;;;;5034947;28;20053;-87
2023/01/05 11:05:27;;;;;;;15.65;3.75;;;9.70;99.90;;;;;;5047968;28;20051;-87
2023/01/05 11:07:57;;;;;;;19.88;3.55;;;9.70;99.90;;;;;;5047949;28;20040;-87
2023/01/05 11:10:40;;;;;;;17.58;3.55;;;9.80;99.90;;;;;;5049259;28;20041;-87
2023/01/05 11:13:15;;;;;;;10.10;2.65;;;9.80;99.90;;;;;;5047679;28;20041;-88
2023/01/05 11:15:45;;;;;;;14.98;3.30;;;9.80;99.90;;;;;;5028419;28;21760;-88
2023/01/05 11:18:55;;;;;;;13.00;2.45;;;9.80;99.90;;;;;;5047691;28;20056;-89
2023/01/05 11:21:27;;;;;;;10.88;2.50;;;9.90;99.90;;;;;;5030897;28;20053;-89
2023/01/05 11:23:56;;;;;;;11.68;2.22;;;9.90;99.90;;;;;;5048007;28;20061;-88
2023/01/05 11:26:34;;;;;;;14.65;2.35;;;9.90;99.90;;;;;;5047404;28;20428;-88
2023/01/05 11:29:09;;;;;;;10.88;2.10;;;9.90;99.90;;;;;;5048583;28;20071;-88
2023/01/05 11:31:41;;;;;;;12.38;2.30;;;9.90;99.90;;;;;;5048158;28;20048;-89
2023/01/05 11:34:12;;;;;;;11.63;2.28;;;10.60;99.90;;;;;;5049985;28;20085;-88
2023/01/05 11:36:39;;;;;;;10.18;2.35;;;10.00;99.90;;;;;;5048207;28;20084;-88
2023/01/05 11:39:05;;;;;;;13.80;2.40;;;10.00;99.90;;;;;;5047381;28;20120;-87
2023/01/05 11:41:31;;;;;;;14.00;2.78;;;10.00;99.90;;;;;;5014523;28;20123;-87
2023/01/05 11:43:59;;;;;;;12.93;2.40;;;10.00;99.90;;;;;;5054173;28;20041;-89
2023/01/05 11:46:38;;;;;;;17.67;2.80;;;9.90;99.90;;;;;;4998464;28;20390;-87
2023/01/05 11:49:04;;;;;;;9.90;2.60;;;9.90;99.90;;;;;;5042721;28;20065;-88
2023/01/05 11:51:38;;;;;;;18.75;3.55;;;9.90;99.90;;;;;;5041352;28;20073;-88
2023/01/05 11:54:23;;;;;;;13.13;3.03;;;9.90;99.90;;;;;;5045892;28;20048;-88
2023/01/05 11:57:05;;;;;;;14.45;3.05;;;9.90;99.90;;;;;;5044036;28;20047;-88
2023/01/05 11:59:36;;;;;;;17.05;3.13;;;9.90;99.90;;;;;;5045471;28;20044;-88
2023/01/05 12:02:16;;;;;;;18.60;3.25;;;9.90;99.90;;;;;;5048332;28;20119;-88
2023/01/05 12:05:02;;;;;;;14.20;3.33;;;9.80;99.90;;;;;;5061118;28;20091;-87
2023/01/05 12:07:45;;;;;;;16.92;3.40;;;9.90;99.90;;;;;;5043801;28;20048;-87
2023/01/05 12:10:11;;;;;;;17.15;3.28;;;9.80;99.90;;;;;;5042600;28;20514;-88
2023/01/05 12:12:59;;;;;;;16.63;3.00;;;9.80;99.90;;;;;;5026101;28;20126;-88
2023/01/05 12:15:41;;;;;;;14.48;2.90;;;9.80;99.90;;;;;;5031141;28;20048;-87
2023/01/05 12:18:25;;;;;;;16.80;3.70;;;9.80;99.90;;;;;;5062165;28;20063;-88
2023/01/05 12:20:55;;;;;;;13.75;3.08;;;9.80;99.90;;;;;;5047849;28;20052;-88
2023/01/05 12:23:31;;;;;;;18.45;3.45;;;9.80;99.90;;;;;;5031235;28;20045;-87
2023/01/05 12:26:24;;;;;;;15.70;3.65;;;9.80;99.90;;;;;;5061015;28;20129;-89
2023/01/05 12:29:11;;;;;;;13.23;3.35;;;9.90;99.90;;;;;;5049871;28;20384;-88
2023/01/05 12:32:08;;;;;;;16.25;3.33;;;9.90;99.90;;;;;;5050223;28;20064;-88
2023/01/05 12:34:43;;;;;;;15.32;3.50;;;10.00;99.90;;;;;;4973304;28;20130;-88
2023/01/05 12:37:44;;;;;;;15.20;3.60;;;10.00;99.90;;;;;;5027489;28;20033;-86
2023/01/05 12:40:32;;;;;;;13.30;2.97;;;10.00;99.90;;;;;;5028203;28;21006;-87
2023/01/05 12:43:09;;;;;;;17.50;3.40;;;10.10;99.90;;;;;;5026469;28;20068;-87
2023/01/05 12:45:58;;;;;;;11.98;2.83;;;10.10;99.90;;;;;;5044650;28;20033;-87
2023/01/05 12:48:36;;;;;;;12.45;2.35;;;10.10;99.90;;;;;;5021646;28;20049;-88
2023/01/05 12:51:17;;;;;;;13.30;2.60;;;10.10;99.90;;;;;;5045873;28;20040;-88
2023/01/05 12:53:55;;;;;;;12.95;2.72;;;10.00;99.90;;;;;;5028947;28;20040;-87
2023/01/05 12:56:38;;;;;;;10.90;2.28;;;10.00;99.90;;;;;;5046012;28;20497;-87
2023/01/05 12:59:15;;;;;;;17.30;2.85;;;10.00;99.90;;;;;;5053000;28;20051;-87
2023/01/05 13:02:06;;;;;;;13.38;2.83;;;10.00;99.90;;;;;;5046247;28;20102;-88
2023/01/05 13:04:42;;;;;;;12.55;2.90;;;10.00;99.90;;;;;;5044023;28;20036;-88
2023/01/05 13:07:22;;;;;;;11.63;2.85;;;10.00;99.90;;;;;;5060929;28;20068;-88
2023/01/05 13:09:57;;;;;;;13.50;2.80;;;10.00;99.90;;;;;;5046926;28;20040;-87
2023/01/05 13:12:23;;;;;;;12.13;3.08;;;10.00;99.90;;;;;;5046905;28;20041;-88
2023/01/05 13:15:05;;;;;;;12.52;3.13;;;9.90;99.90;;;;;;5028523;28;20052;-88
2023/01/05 13:17:39;;;;;;;13.98;2.80;;;9.90;99.90;;;;;;5042039;28;20037;-87
2023/01/05 13:20:24;;;;;;;13.40;2.75;;;9.90;99.90;;;;;;5038699;28;20517;-87
2023/01/05 13:22:58;;;;;;;13.18;2.90;;;9.90;99.90;;;;;;5058782;28;20049;-88
2023/01/05 13:25:28;;;;;;;15.30;2.78;;;9.90;99.90;;;;;;5042463;28;20401;-88
2023/01/05 13:27:54;;;;;;;12.88;2.60;;;9.90;99.90;;;;;;5048259;28;20045;-88
2023/01/05 13:30:31;;;;;;;13.68;2.60;;;9.90;99.90;;;;;;5046779;28;20417;-88
2023/01/05 13:33:29;;;;;;;15.15;2.58;;;10.00;99.90;;;;;;5033962;28;20041;-88